Terminal Aerodrome Forecast
Issued by NWS

Home | Current Version | Previous Version | Text Only | Print | Product List | Glossary On
Versions: 1 2 3 4 5 6 7 8 9 10 11 12 13 14 15 16 17 18 19 20
000
FTAK31 PAJN 031733
TAFAJN
TAF
PAJN 031733Z 0318/0418 12015G25KT 5SM -SHRA BR OVC030
     FM032000 11010KT 6SM -SHRASN BKN035 OVC045
     FM040000 09006KT 5SM -SHSN OVC040
     FM040500 VRB06KT 2SM -SHSN OVC040=

USA.gov is the U.S. government's official web portal to all federal, state and local government web resources and services.